sensor_id;sensor_type;location;lat;lon;timestamp;pressure;altitude;pressure_sealevel;temperature;humidity
20145;BME280;10233;50.814;6.590;2023-04-02T00:00:35;99369.56;;;9.34;100.00
20145;BME280;10233;50.814;6.590;2023-04-02T00:01:38;99377.53;;;9.34;100.00
20145;BME280;10233;50.814;6.590;2023-04-02T00:07:30;99381.59;;;9.36;100.00
20145;BME280;10233;50.814;6.590;2023-04-02T00:08:39;99387.34;;;9.33;100.00
20145;BME280;10233;50.814;6.590;2023-04-02T00:09:40;99387.97;;;9.29;100.00
20145;BME280;10233;50.814;6.590;2023-04-02T00:10:49;99386.38;;;9.21;100.00
20145;BME280;10233;50.814;6.590;2023-04-02T00:11:51;99393.34;;;9.22;100.00
20145;BME280;10233;50.814;6.590;2023-04-02T00:13:16;99396.63;;;9.18;100.00
20145;BME280;10233;50.814;6.590;2023-04-02T00:15:26;99400.00;;;9.31;100.00
20145;BME280;10233;50.814;6.590;2023-04-02T00:16:27;99394.50;;;9.26;100.00
20145;BME280;10233;50.814;6.590;2023-04-02T00:17:28;99399.81;;;9.26;100.00
20145;BME280;10233;50.814;6.590;2023-04-02T00:18:29;99403.50;;;9.25;100.00
20145;BME280;10233;50.814;6.590;2023-04-02T00:19:51;99405.53;;;9.30;100.00
20145;BME280;10233;50.814;6.590;2023-04-02T00:22:11;99404.16;;;9.21;100.00
20145;BME280;10233;50.814;6.590;2023-04-02T00:23:14;99413.72;;;9.22;100.00
20145;BME280;10233;50.814;6.590;2023-04-02T00:24:17;99411.94;;;9.16;100.00
20145;BME280;10233;50.814;6.590;2023-04-02T00:25:19;99411.50;;;9.19;100.00
20145;BME280;10233;50.814;6.590;2023-04-02T00:27:30;99413.34;;;9.18;100.00
20145;BME280;10233;50.814;6.590;2023-04-02T00:28:31;99421.13;;;9.13;100.00
20145;BME280;10233;50.814;6.590;2023-04-02T00:29:32;99423.13;;;9.18;100.00
20145;BME280;10233;50.814;6.590;2023-04-02T00:30:34;99423.31;;;9.23;100.00
20145;BME280;10233;50.814;6.590;2023-04-02T00:31:37;99421.91;;;9.20;100.00
20145;BME280;10233;50.814;6.590;2023-04-02T00:32:38;99421.94;;;9.14;100.00
20145;BME280;10233;50.814;6.590;2023-04-02T00:33:41;99426.81;;;9.17;100.00
20145;BME280;10233;50.814;6.590;2023-04-02T00:34:43;99431.94;;;9.12;100.00
20145;BME280;10233;50.814;6.590;2023-04-02T00:35:43;99422.72;;;9.21;100.00
20145;BME280;10233;50.814;6.590;2023-04-02T00:36:45;99429.88;;;9.14;100.00
20145;BME280;10233;50.814;6.590;2023-04-02T00:37:46;99429.94;;;9.07;100.00
20145;BME280;10233;50.814;6.590;2023-04-02T00:38:47;99426.88;;;9.04;100.00
20145;BME280;10233;50.814;6.590;2023-04-02T00:39:49;99430.53;;;9.09;100.00
20145;BME280;10233;50.814;6.590;2023-04-02T00:40:53;99436.88;;;9.08;100.00
20145;BME280;10233;50.814;6.590;2023-04-02T00:41:56;99430.13;;;9.12;100.00
20145;BME280;10233;50.814;6.590;2023-04-02T00:43:06;99431.38;;;9.03;100.00
20145;BME280;10233;50.814;6.590;2023-04-02T00:44:10;99427.09;;;9.02;100.00
20145;BME280;10233;50.814;6.590;2023-04-02T00:45:25;99428.78;;;8.97;100.00
20145;BME280;10233;50.814;6.590;2023-04-02T00:46:31;99435.47;;;8.99;100.00
20145;BME280;10233;50.814;6.590;2023-04-02T00:47:36;99439.16;;;8.98;100.00
20145;BME280;10233;50.814;6.590;2023-04-02T00:48:43;99434.28;;;8.95;100.00
20145;BME280;10233;50.814;6.590;2023-04-02T00:49:53;99439.75;;;9.00;100.00
20145;BME280;10233;50.814;6.590;2023-04-02T00:51:00;99439.94;;;9.05;100.00
20145;BME280;10233;50.814;6.590;2023-04-02T00:52:18;99439.75;;;9.00;100.00
20145;BME280;10233;50.814;6.590;2023-04-02T00:53:25;99440.78;;;8.99;100.00
20145;BME280;10233;50.814;6.590;2023-04-02T00:54:30;99444.28;;;8.93;100.00
20145;BME280;10233;50.814;6.590;2023-04-02T00:55:35;99445.25;;;8.99;100.00
20145;BME280;10233;50.814;6.590;2023-04-02T00:56:42;99438.72;;;9.01;100.00
20145;BME280;10233;50.814;6.590;2023-04-02T00:57:44;99440.44;;;8.89;100.00
20145;BME280;10233;50.814;6.590;2023-04-02T00:58:50;99445.34;;;8.86;100.00
20145;BME280;10233;50.814;6.590;2023-04-02T01:00:01;99448.19;;;8.84;100.00
20145;BME280;10233;50.814;6.590;2023-04-02T01:01:16;99446.34;;;8.85;100.00
20145;BME280;10233;50.814;6.590;2023-04-02T01:02:25;99446.97;;;8.80;100.00
20145;BME280;10233;50.814;6.590;2023-04-02T01:03:29;99446.13;;;8.86;100.00
20145;BME280;10233;50.814;6.590;2023-04-02T01:04:33;99451.88;;;8.83;100.00
20145;BME280;10233;50.814;6.590;2023-04-02T01:05:35;99454.53;;;8.83;100.00
20145;BME280;10233;50.814;6.590;2023-04-02T01:06:37;99450.03;;;8.84;100.00
20145;BME280;10233;50.814;6.590;2023-04-02T01:10:36;99465.31;;;8.82;100.00
20145;BME280;10233;50.814;6.590;2023-04-02T01:15:24;99470.00;;;8.86;100.00
20145;BME280;10233;50.814;6.590;2023-04-02T01:17:54;99464.69;;;8.86;100.00
20145;BME280;10233;50.814;6.590;2023-04-02T01:23:34;99487.75;;;8.79;100.00
20145;BME280;10233;50.814;6.590;2023-04-02T01:24:34;99483.88;;;8.88;100.00
20145;BME280;10233;50.814;6.590;2023-04-02T01:25:52;99484.66;;;8.89;100.00
20145;BME280;10233;50.814;6.590;2023-04-02T01:26:57;99487.31;;;8.89;100.00
20145;BME280;10233;50.814;6.590;2023-04-02T01:28:08;99492.00;;;8.87;100.00
20145;BME280;10233;50.814;6.590;2023-04-02T01:29:22;99486.91;;;8.92;100.00
20145;BME280;10233;50.814;6.590;2023-04-02T01:30:24;99494.66;;;8.93;100.00
20145;BME280;10233;50.814;6.590;2023-04-02T01:31:26;99494.66;;;8.93;100.00
20145;BME280;10233;50.814;6.590;2023-04-02T01:32:28;99497.88;;;8.95;100.00
20145;BME280;10233;50.814;6.590;2023-04-02T01:33:33;99500.53;;;8.95;100.00
20145;BME280;10233;50.814;6.590;2023-04-02T01:34:34;99498.09;;;8.87;100.00
20145;BME280;10233;50.814;6.590;2023-04-02T01:35:38;99501.97;;;8.91;100.00
20145;BME280;10233;50.814;6.590;2023-04-02T01:36:53;99503.19;;;8.89;100.00
20145;BME280;10233;50.814;6.590;2023-04-02T01:38:10;99508.94;;;8.86;100.00
20145;BME280;10233;50.814;6.590;2023-04-02T01:39:22;99502.81;;;8.85;100.00
20145;BME280;10233;50.814;6.590;2023-04-02T01:40:38;99508.13;;;8.85;100.00
20145;BME280;10233;50.814;6.590;2023-04-02T01:44:09;99513.41;;;8.85;100.00
20145;BME280;10233;50.814;6.590;2023-04-02T01:45:16;99512.59;;;8.85;100.00
20145;BME280;10233;50.814;6.590;2023-04-02T01:46:32;99526.06;;;8.83;100.00
20145;BME280;10233;50.814;6.590;2023-04-02T01:47:33;99525.88;;;8.78;100.00
20145;BME280;10233;50.814;6.590;2023-04-02T01:48:34;99530.75;;;8.81;100.00
20145;BME280;10233;50.814;6.590;2023-04-02T01:49:35;99526.06;;;8.83;100.00
20145;BME280;10233;50.814;6.590;2023-04-02T01:50:38;99532.16;;;8.84;100.00
20145;BME280;10233;50.814;6.590;2023-04-02T01:51:43;99531.78;;;8.87;100.00
20145;BME280;10233;50.814;6.590;2023-04-02T01:52:47;99533.41;;;8.81;100.00
20145;BME280;10233;50.814;6.590;2023-04-02T01:53:48;99535.22;;;8.87;100.00
20145;BME280;10233;50.814;6.590;2023-04-02T01:54:50;99542.78;;;8.84;100.00
20145;BME280;10233;50.814;6.590;2023-04-02T01:55:55;99542.38;;;8.80;100.00
20145;BME280;10233;50.814;6.590;2023-04-02T01:56:56;99533.41;;;8.81;100.00
20145;BME280;10233;50.814;6.590;2023-04-02T01:57:58;99544.19;;;8.86;100.00
20145;BME280;10233;50.814;6.590;2023-04-02T01:59:00;99531.78;;;8.87;100.00
20145;BME280;10233;50.814;6.590;2023-04-02T02:00:04;99546.47;;;8.76;100.00
20145;BME280;10233;50.814;6.590;2023-04-02T02:01:16;99545.03;;;8.80;100.00
20145;BME280;10233;50.814;6.590;2023-04-02T02:02:19;99547.69;;;8.80;100.00
20145;BME280;10233;50.814;6.590;2023-04-02T02:03:21;99557.06;;;8.76;100.00
20145;BME280;10233;50.814;6.590;2023-04-02T02:04:23;99553.00;;;8.74;100.00
20145;BME280;10233;50.814;6.590;2023-04-02T02:05:24;99566.25;;;8.74;100.00
20145;BME280;10233;50.814;6.590;2023-04-02T02:06:28;99556.84;;;8.78;100.00
20145;BME280;10233;50.814;6.590;2023-04-02T02:07:29;99555.63;;;8.80;100.00
20145;BME280;10233;50.814;6.590;2023-04-02T02:09:34;99564.63;;;8.73;100.00
20145;BME280;10233;50.814;6.590;2023-04-02T02:10:38;99563.59;;;8.74;100.00
20145;BME280;10233;50.814;6.590;2023-04-02T02:11:40;99563.59;;;8.67;100.00
20145;BME280;10233;50.814;6.590;2023-04-02T02:12:42;99568.09;;;8.73;100.00
20145;BME280;10233;50.814;6.590;2023-04-02T02:13:53;99568.88;;;8.80;100.00
20145;BME280;10233;50.814;6.590;2023-04-02T02:14:54;99562.34;;;8.76;100.00
20145;BME280;10233;50.814;6.590;2023-04-02T02:15:59;99567.91;;;8.68;100.00
20145;BME280;10233;50.814;6.590;2023-04-02T02:17:01;99584.00;;;8.73;100.00
20145;BME280;10233;50.814;6.590;2023-04-02T02:18:08;99582.13;;;8.67;100.00
20145;BME280;10233;50.814;6.590;2023-04-02T02:19:26;99583.38;;;8.71;100.00
20145;BME280;10233;50.814;6.590;2023-04-02T02:20:28;99590.50;;;8.71;100.00
20145;BME280;10233;50.814;6.590;2023-04-02T02:21:44;99594.97;;;8.77;100.00
20145;BME280;10233;50.814;6.590;2023-04-02T02:22:47;99590.09;;;8.67;100.00
20145;BME280;10233;50.814;6.590;2023-04-02T02:23:48;99594.78;;;8.65;100.00
20145;BME280;10233;50.814;6.590;2023-04-02T02:24:50;99604.56;;;8.71;100.00
20145;BME280;10233;50.814;6.590;2023-04-02T02:25:53;99602.94;;;8.70;100.00
20145;BME280;10233;50.814;6.590;2023-04-02T02:28:32;99604.75;;;8.76;100.00
20145;BME280;10233;50.814;6.590;2023-04-02T02:29:37;99600.69;;;8.67;100.00
20145;BME280;10233;50.814;6.590;2023-04-02T02:30:47;99604.16;;;8.74;100.00
20145;BME280;10233;50.814;6.590;2023-04-02T02:31:53;99612.09;;;8.68;100.00
20145;BME280;10233;50.814;6.590;2023-04-02T02:33:37;99608.84;;;8.72;100.00
20145;BME280;10233;50.814;6.590;2023-04-02T02:34:47;99621.09;;;8.67;100.00
20145;BME280;10233;50.814;6.590;2023-04-02T02:36:57;99614.13;;;8.66;100.00
20145;BME280;10233;50.814;6.590;2023-04-02T02:39:42;99624.53;;;8.61;100.00
20145;BME280;10233;50.814;6.590;2023-04-02T02:40:47;99627.19;;;8.61;100.00
20145;BME280;10233;50.814;6.590;2023-04-02T02:43:01;99638.19;;;8.58;100.00
20145;BME280;10233;50.814;6.590;2023-04-02T02:45:24;99631.66;;;8.47;100.00
20145;BME280;10233;50.814;6.590;2023-04-02T02:46:28;99634.31;;;8.54;100.00
20145;BME280;10233;50.814;6.590;2023-04-02T02:47:33;99624.34;;;8.49;100.00
20145;BME280;10233;50.814;6.590;2023-04-02T02:48:38;99633.53;;;8.47;100.00
20145;BME280;10233;50.814;6.590;2023-04-02T02:49:47;99635.16;;;8.54;100.00
20145;BME280;10233;50.814;6.590;2023-04-02T02:50:52;99645.13;;;8.52;100.00
20145;BME280;10233;50.814;6.590;2023-04-02T02:53:22;99644.09;;;8.53;100.00
20145;BME280;10233;50.814;6.590;2023-04-02T02:54:26;99644.72;;;8.55;100.00
20145;BME280;10233;50.814;6.590;2023-04-02T02:55:36;99645.53;;;8.56;100.00
20145;BME280;10233;50.814;6.590;2023-04-02T02:57:10;99656.34;;;8.54;100.00
20145;BME280;10233;50.814;6.590;2023-04-02T02:58:23;99661.41;;;8.56;100.00
20145;BME280;10233;50.814;6.590;2023-04-02T02:59:34;99662.84;;;8.45;100.00
20145;BME280;10233;50.814;6.590;2023-04-02T03:00:37;99663.88;;;8.44;100.00
20145;BME280;10233;50.814;6.590;2023-04-02T03:01:40;99667.53;;;8.43;100.00
20145;BME280;10233;50.814;6.590;2023-04-02T03:02:41;99664.28;;;8.48;100.00
20145;BME280;10233;50.814;6.590;2023-04-02T03:03:45;99669.56;;;8.48;100.00
20145;BME280;10233;50.814;6.590;2023-04-02T03:04:49;99668.75;;;8.47;100.00
20145;BME280;10233;50.814;6.590;2023-04-02T03:05:57;99674.69;;;8.49;100.00
20145;BME280;10233;50.814;6.590;2023-04-02T03:07:01;99673.66;;;8.50;100.00
20145;BME280;10233;50.814;6.590;2023-04-02T03:08:05;99681.78;;;8.49;100.00
20145;BME280;10233;50.814;6.590;2023-04-02T03:10:51;99679.97;;;8.49;100.00
20145;BME280;10233;50.814;6.590;2023-04-02T03:14:43;99690.13;;;8.46;100.00
20145;BME280;10233;50.814;6.590;2023-04-02T03:15:54;99695.84;;;8.36;100.00
20145;BME280;10233;50.814;6.590;2023-04-02T03:17:09;99694.81;;;8.44;100.00
20145;BME280;10233;50.814;6.590;2023-04-02T03:18:18;99694.81;;;8.37;100.00
20145;BME280;10233;50.814;6.590;2023-04-02T03:22:15;99702.75;;;8.37;100.00
20145;BME280;10233;50.814;6.590;2023-04-02T03:23:26;99710.50;;;8.39;100.00
20145;BME280;10233;50.814;6.590;2023-04-02T03:25:57;99717.63;;;8.38;100.00
20145;BME280;10233;50.814;6.590;2023-04-02T03:27:25;99711.75;;;8.43;100.00
20145;BME280;10233;50.814;6.590;2023-04-02T03:28:32;99709.91;;;8.43;100.00
20145;BME280;10233;50.814;6.590;2023-04-02T03:29:40;99725.78;;;8.43;100.00
20145;BME280;10233;50.814;6.590;2023-04-02T03:30:48;99725.00;;;8.43;100.00
20145;BME280;10233;50.814;6.590;2023-04-02T03:32:13;99728.66;;;8.42;100.00
20145;BME280;10233;50.814;6.590;2023-04-02T03:34:41;99736.78;;;8.40;100.00
20145;BME280;10233;50.814;6.590;2023-04-02T03:36:02;99731.50;;;8.40;100.00
20145;BME280;10233;50.814;6.590;2023-04-02T03:37:17;99736.19;;;8.45;100.00
20145;BME280;10233;50.814;6.590;2023-04-02T03:38:26;99741.06;;;8.35;100.00
20145;BME280;10233;50.814;6.590;2023-04-02T03:40:38;99743.31;;;8.38;100.00
20145;BME280;10233;50.814;6.590;2023-04-02T03:41:50;99748.19;;;8.41;100.00
20145;BME280;10233;50.814;6.590;2023-04-02T03:43:02;99755.31;;;8.34;100.00
20145;BME280;10233;50.814;6.590;2023-04-02T03:44:10;99754.94;;;8.37;100.00
20145;BME280;10233;50.814;6.590;2023-04-02T03:49:00;99765.84;;;8.21;100.00
20145;BME280;10233;50.814;6.590;2023-04-02T03:50:05;99764.38;;;8.18;100.00
20145;BME280;10233;50.814;6.590;2023-04-02T03:51:39;99770.88;;;8.09;100.00
20145;BME280;10233;50.814;6.590;2023-04-02T03:52:40;99768.06;;;8.17;100.00
20145;BME280;10233;50.814;6.590;2023-04-02T03:53:46;99774.97;;;8.18;100.00
20145;BME280;10233;50.814;6.590;2023-04-02T03:54:48;99777.41;;;8.13;100.00
20145;BME280;10233;50.814;6.590;2023-04-02T03:55:49;99779.63;;;8.10;100.00
20145;BME280;10233;50.814;6.590;2023-04-02T03:56:52;99778.63;;;8.11;100.00
20145;BME280;10233;50.814;6.590;2023-04-02T03:58:06;99781.44;;;8.09;100.00
20145;BME280;10233;50.814;6.590;2023-04-02T04:01:52;99787.53;;;8.03;100.00
20145;BME280;10233;50.814;6.590;2023-04-02T04:02:57;99794.00;;;7.94;100.00
20145;BME280;10233;50.814;6.590;2023-04-02T04:04:32;99800.97;;;8.02;100.00
20145;BME280;10233;50.814;6.590;2023-04-02T04:05:42;99798.72;;;7.99;100.00
20145;BME280;10233;50.814;6.590;2023-04-02T04:06:49;99798.97;;;8.04;100.00
20145;BME280;10233;50.814;6.590;2023-04-02T04:07:54;99803.59;;;8.02;100.00
20145;BME280;10233;50.814;6.590;2023-04-02T04:09:13;99807.88;;;7.96;100.00
20145;BME280;10233;50.814;6.590;2023-04-02T04:10:23;99812.50;;;7.88;100.00
20145;BME280;10233;50.814;6.590;2023-04-02T04:11:29;99810.72;;;7.95;100.00
20145;BME280;10233;50.814;6.590;2023-04-02T04:12:38;99808.72;;;8.03;100.00
20145;BME280;10233;50.814;6.590;2023-04-02T04:15:04;99821.69;;;7.92;100.00
20145;BME280;10233;50.814;6.590;2023-04-02T04:16:13;99817.63;;;7.96;100.00
20145;BME280;10233;50.814;6.590;2023-04-02T04:17:26;99820.88;;;7.91;100.00
20145;BME280;10233;50.814;6.590;2023-04-02T04:18:39;99819.25;;;7.90;100.00
20145;BME280;10233;50.814;6.590;2023-04-02T04:20:14;99831.22;;;7.86;100.00
20145;BME280;10233;50.814;6.590;2023-04-02T04:21:22;99826.59;;;7.95;100.00
20145;BME280;10233;50.814;6.590;2023-04-02T04:22:33;99824.97;;;7.94;100.00
20145;BME280;10233;50.814;6.590;2023-04-02T04:23:49;99829.84;;;7.90;100.00
20145;BME280;10233;50.814;6.590;2023-04-02T04:24:51;99838.72;;;7.83;100.00
20145;BME280;10233;50.814;6.590;2023-04-02T04:26:20;99836.53;;;7.86;100.00
20145;BME280;10233;50.814;6.590;2023-04-02T04:27:35;99836.31;;;7.88;100.00
20145;BME280;10233;50.814;6.590;2023-04-02T04:28:53;99844.06;;;7.89;100.00
20145;BME280;10233;50.814;6.590;2023-04-02T04:30:03;99849.56;;;7.94;100.00
20145;BME280;10233;50.814;6.590;2023-04-02T04:33:42;99868.03;;;7.81;100.00
20145;BME280;10233;50.814;6.590;2023-04-02T04:34:49;99865.59;;;7.80;100.00
20145;BME280;10233;50.814;6.590;2023-04-02T04:35:58;99870.69;;;7.81;100.00
20145;BME280;10233;50.814;6.590;2023-04-02T04:37:03;99876.97;;;7.80;100.00
20145;BME280;10233;50.814;6.590;2023-04-02T04:38:40;99886.94;;;7.78;100.00
20145;BME280;10233;50.814;6.590;2023-04-02T04:39:57;99884.09;;;7.80;100.00
20145;BME280;10233;50.814;6.590;2023-04-02T04:41:05;99881.41;;;7.73;100.00
20145;BME280;10233;50.814;6.590;2023-04-02T04:42:18;99879.97;;;7.71;100.00
20145;BME280;10233;50.814;6.590;2023-04-02T04:43:31;99887.13;;;7.77;100.00
20145;BME280;10233;50.814;6.590;2023-04-02T04:44:53;99890.34;;;7.72;100.00
20145;BME280;10233;50.814;6.590;2023-04-02T04:46:01;99896.69;;;7.78;100.00
20145;BME280;10233;50.814;6.590;2023-04-02T04:47:09;99893.66;;;7.81;100.00
20145;BME280;10233;50.814;6.590;2023-04-02T04:49:34;99894.03;;;7.71;100.00
20145;BME280;10233;50.814;6.590;2023-04-02T04:50:48;99897.28;;;7.73;100.00
20145;BME280;10233;50.814;6.590;2023-04-02T04:52:53;99898.13;;;7.80;100.00
20145;BME280;10233;50.814;6.590;2023-04-02T04:53:54;99908.72;;;7.80;100.00
20145;BME280;10233;50.814;6.590;2023-04-02T04:54:57;99914.97;;;7.73;100.00
20145;BME280;10233;50.814;6.590;2023-04-02T04:56:04;99907.44;;;7.70;100.00
20145;BME280;10233;50.814;6.590;2023-04-02T04:57:34;99908.38;;;7.62;100.00
20145;BME280;10233;50.814;6.590;2023-04-02T04:58:41;99917.34;;;7.61;100.00
20145;BME280;10233;50.814;6.590;2023-04-02T04:59:52;99917.13;;;7.63;100.00
20145;BME280;10233;50.814;6.590;2023-04-02T05:03:41;99921.50;;;7.49;100.00
20145;BME280;10233;50.814;6.590;2023-04-02T05:04:48;99931.88;;;7.51;100.00
20145;BME280;10233;50.814;6.590;2023-04-02T05:05:50;99934.81;;;7.41;100.00
20145;BME280;10233;50.814;6.590;2023-04-02T05:07:14;99942.22;;;7.46;100.00
20145;BME280;10233;50.814;6.590;2023-04-02T05:08:23;99939.69;;;7.38;100.00
20145;BME280;10233;50.814;6.590;2023-04-02T05:09:44;99944.78;;;7.39;100.00
20145;BME280;10233;50.814;6.590;2023-04-02T05:11:12;99941.13;;;7.40;100.00
20145;BME280;10233;50.814;6.590;2023-04-02T05:13:31;99954.25;;;7.48;100.00
20145;BME280;10233;50.814;6.590;2023-04-02T05:14:51;99956.81;;;7.42;100.00
20145;BME280;10233;50.814;6.590;2023-04-02T05:16:08;99962.53;;;7.45;100.00
20145;BME280;10233;50.814;6.590;2023-04-02T05:17:18;99967.97;;;7.37;100.00
20145;BME280;10233;50.814;6.590;2023-04-02T05:20:23;99971.34;;;7.31;100.00
20145;BME280;10233;50.814;6.590;2023-04-02T05:22:56;99973.97;;;7.31;100.00
20145;BME280;10233;50.814;6.590;2023-04-02T05:25:26;99987.19;;;7.31;100.00
20145;BME280;10233;50.814;6.590;2023-04-02T05:26:32;99988.09;;;7.38;100.00
20145;BME280;10233;50.814;6.590;2023-04-02T05:28:02;99990.50;;;7.33;100.00
20145;BME280;10233;50.814;6.590;2023-04-02T05:31:29;100002.34;;;7.37;100.00
20145;BME280;10233;50.814;6.590;2023-04-02T05:32:39;100005.03;;;7.44;100.00
20145;BME280;10233;50.814;6.590;2023-04-02T05:33:46;100000.88;;;7.35;100.00
20145;BME280;10233;50.814;6.590;2023-04-02T05:34:52;100004.34;;;7.35;100.00
20145;BME280;10233;50.814;6.590;2023-04-02T05:35:59;100011.72;;;7.40;100.00
20145;BME280;10233;50.814;6.590;2023-04-02T05:37:00;100018.19;;;7.37;100.00
20145;BME280;10233;50.814;6.590;2023-04-02T05:38:01;100013.34;;;7.41;100.00
20145;BME280;10233;50.814;6.590;2023-04-02T05:39:08;100015.09;;;7.34;100.00
20145;BME280;10233;50.814;6.590;2023-04-02T05:40:25;100026.56;;;7.41;100.00
20145;BME280;10233;50.814;6.590;2023-04-02T05:41:36;100018.56;;;7.34;100.00
20145;BME280;10233;50.814;6.590;2023-04-02T05:42:42;100023.66;;;7.36;100.00
20145;BME280;10233;50.814;6.590;2023-04-02T05:43:47;100023.84;;;7.34;100.00
20145;BME280;10233;50.814;6.590;2023-04-02T05:45:00;100026.84;;;7.31;100.00
20145;BME280;10233;50.814;6.590;2023-04-02T05:46:14;100030.25;;;7.25;100.00
20145;BME280;10233;50.814;6.590;2023-04-02T05:47:25;100039.19;;;7.24;100.00
20145;BME280;10233;50.814;6.590;2023-04-02T05:48:39;100032.00;;;7.18;100.00
20145;BME280;10233;50.814;6.590;2023-04-02T05:50:04;100038.31;;;7.17;100.00
20145;BME280;10233;50.814;6.590;2023-04-02T05:51:21;100042.47;;;7.26;100.00
20145;BME280;10233;50.814;6.590;2023-04-02T05:52:30;100047.69;;;7.20;100.00
20145;BME280;10233;50.814;6.590;2023-04-02T05:53:36;100044.75;;;7.29;100.00
20145;BME280;10233;50.814;6.590;2023-04-02T05:54:47;100048.94;;;7.24;100.00
20145;BME280;10233;50.814;6.590;2023-04-02T05:56:02;100054.03;;;7.25;100.00
20145;BME280;10233;50.814;6.590;2023-04-02T05:57:14;100056.31;;;7.28;100.00
20145;BME280;10233;50.814;6.590;2023-04-02T05:59:28;100058.06;;;7.21;100.00
20145;BME280;10233;50.814;6.590;2023-04-02T06:01:47;100058.63;;;7.17;100.00
20145;BME280;10233;50.814;6.590;2023-04-02T06:03:05;100063.38;;;7.07;100.00
20145;BME280;10233;50.814;6.590;2023-04-02T06:04:26;100069.94;;;7.11;100.00
20145;BME280;10233;50.814;6.590;2023-04-02T06:05:34;100073.13;;;7.21;100.00
20145;BME280;10233;50.814;6.590;2023-04-02T06:07:49;100073.91;;;7.21;100.00
20145;BME280;10233;50.814;6.590;2023-04-02T06:08:58;100073.56;;;7.24;100.00
20145;BME280;10233;50.814;6.590;2023-04-02T06:10:21;100071.53;;;7.26;100.00
20145;BME280;10233;50.814;6.590;2023-04-02T06:11:32;100082.13;;;7.12;100.00
20145;BME280;10233;50.814;6.590;2023-04-02T06:12:46;100082.41;;;7.17;100.00
20145;BME280;10233;50.814;6.590;2023-04-02T06:13:51;100090.78;;;7.20;100.00
20145;BME280;10233;50.814;6.590;2023-04-02T06:14:54;100081.03;;;7.21;100.00
20145;BME280;10233;50.814;6.590;2023-04-02T06:15:56;100091.25;;;7.09;100.00
20145;BME280;10233;50.814;6.590;2023-04-02T06:17:01;100087.59;;;7.10;100.00
20145;BME280;10233;50.814;6.590;2023-04-02T06:18:06;100089.97;;;7.05;100.00
20145;BME280;10233;50.814;6.590;2023-04-02T06:19:22;100098.53;;;7.07;100.00
20145;BME280;10233;50.814;6.590;2023-04-02T06:20:25;100091.25;;;7.09;100.00
20145;BME280;10233;50.814;6.590;2023-04-02T06:21:26;100099.44;;;7.14;100.00
20145;BME280;10233;50.814;6.590;2023-04-02T06:22:38;100098.84;;;7.12;100.00
20145;BME280;10233;50.814;6.590;2023-04-02T06:23:57;100103.72;;;7.15;100.00
20145;BME280;10233;50.814;6.590;2023-04-02T06:25:05;100107.91;;;7.24;100.00
20145;BME280;10233;50.814;6.590;2023-04-02T06:26:31;100106.63;;;7.20;100.00
20145;BME280;10233;50.814;6.590;2023-04-02T06:27:34;100109.94;;;7.22;100.00
20145;BME280;10233;50.814;6.590;2023-04-02T06:28:43;100109.56;;;7.25;100.00
20145;BME280;10233;50.814;6.590;2023-04-02T06:29:48;100114.22;;;7.23;100.00
20145;BME280;10233;50.814;6.590;2023-04-02T06:30:57;100121.69;;;7.20;100.00
20145;BME280;10233;50.814;6.590;2023-04-02T06:32:08;100122.78;;;7.25;100.00
20145;BME280;10233;50.814;6.590;2023-04-02T06:33:13;100131.44;;;7.19;100.00
20145;BME280;10233;50.814;6.590;2023-04-02T06:34:23;100124.22;;;7.28;100.00
20145;BME280;10233;50.814;6.590;2023-04-02T06:35:33;100136.38;;;7.22;100.00
20145;BME280;10233;50.814;6.590;2023-04-02T06:36:36;100140.00;;;7.21;100.00
20145;BME280;10233;50.814;6.590;2023-04-02T06:37:44;100139.81;;;7.23;100.00
20145;BME280;10233;50.814;6.590;2023-04-02T06:38:56;100141.38;;;7.17;100.00
20145;BME280;10233;50.814;6.590;2023-04-02T06:39:59;100143.91;;;7.25;100.00
20145;BME280;10233;50.814;6.590;2023-04-02T06:41:20;100145.09;;;7.23;100.00
20145;BME280;10233;50.814;6.590;2023-04-02T06:42:52;100150.38;;;7.23;100.00
20145;BME280;10233;50.814;6.590;2023-04-02T06:44:31;100154.13;;;7.28;100.00
20145;BME280;10233;50.814;6.590;2023-04-02T06:46:06;100163.09;;;7.27;100.00
20145;BME280;10233;50.814;6.590;2023-04-02T06:47:33;100160.34;;;7.21;100.00
20145;BME280;10233;50.814;6.590;2023-04-02T06:48:36;100167.09;;;7.23;100.00
20145;BME280;10233;50.814;6.590;2023-04-02T06:49:45;100163.78;;;7.21;100.00
20145;BME280;10233;50.814;6.590;2023-04-02T06:50:58;100167.00;;;7.17;100.00
20145;BME280;10233;50.814;6.590;2023-04-02T06:52:02;100174.56;;;7.20;100.00
20145;BME280;10233;50.814;6.590;2023-04-02T06:53:05;100172.84;;;7.12;100.00
20145;BME280;10233;50.814;6.590;2023-04-02T06:54:15;100173.72;;;7.19;100.00
20145;BME280;10233;50.814;6.590;2023-04-02T06:56:22;100183.31;;;7.20;100.00
20145;BME280;10233;50.814;6.590;2023-04-02T06:57:26;100174.09;;;7.16;100.00
20145;BME280;10233;50.814;6.590;2023-04-02T06:58:27;100175.16;;;7.07;100.00
20145;BME280;10233;50.814;6.590;2023-04-02T06:59:31;100182.56;;;7.12;100.00
20145;BME280;10233;50.814;6.590;2023-04-02T07:00:40;100187.56;;;7.21;100.00
20145;BME280;10233;50.814;6.590;2023-04-02T07:01:56;100189.13;;;7.16;100.00
20145;BME280;10233;50.814;6.590;2023-04-02T07:03:13;100187.31;;;7.16;100.00
20145;BME280;10233;50.814;6.590;2023-04-02T07:04:15;100189.88;;;7.10;100.00
20145;BME280;10233;50.814;6.590;2023-04-02T07:05:19;100191.84;;;7.08;100.00
20145;BME280;10233;50.814;6.590;2023-04-02T07:06:21;100196.69;;;7.04;100.00
20145;BME280;10233;50.814;6.590;2023-04-02T07:07:24;100193.97;;;7.12;100.00
20145;BME280;10233;50.814;6.590;2023-04-02T07:08:25;100194.22;;;7.03;100.00
20145;BME280;10233;50.814;6.590;2023-04-02T07:09:28;100210.06;;;7.03;100.00
20145;BME280;10233;50.814;6.590;2023-04-02T07:10:33;100212.53;;;7.04;100.00
20145;BME280;10233;50.814;6.590;2023-04-02T07:11:34;100209.00;;;7.12;100.00
20145;BME280;10233;50.814;6.590;2023-04-02T07:12:38;100211.81;;;7.10;100.00
20145;BME280;10233;50.814;6.590;2023-04-02T07:13:57;100219.28;;;7.07;100.00